createdAt,value
2019-04-18T00:01:14.924Z,12.27
2019-04-18T00:03:56.335Z,9.03
2019-04-18T00:06:26.797Z,12.17
2019-04-18T00:08:56.115Z,11.83
2019-04-18T00:11:25.535Z,10.60
2019-04-18T00:14:02.802Z,9.63
2019-04-18T00:16:26.012Z,9.47
2019-04-18T00:18:55.368Z,9.53
2019-04-18T00:21:24.703Z,9.00
2019-04-18T00:23:54.075Z,9.30
2019-04-18T00:26:23.497Z,9.27
2019-04-18T00:28:53.444Z,10.83
2019-04-18T00:31:23.499Z,9.80
2019-04-18T00:34:09.103Z,9.60
2019-04-18T00:36:23.939Z,9.03
2019-04-18T00:38:53.268Z,11.83
2019-04-18T00:41:22.614Z,10.87
2019-04-18T00:43:51.964Z,9.93
2019-04-18T00:46:21.280Z,10.17
2019-04-18T00:48:50.609Z,9.27
2019-04-18T00:51:19.915Z,10.27
2019-04-18T00:53:50.948Z,8.63
2019-04-18T00:56:20.291Z,8.60
2019-04-18T00:58:51.382Z,10.47
2019-04-18T01:01:20.679Z,8.43
2019-04-18T01:03:50.049Z,9.37
2019-04-18T01:06:19.355Z,10.13
2019-04-18T01:08:48.652Z,7.20
2019-04-18T01:11:18.000Z,9.93
2019-04-18T01:13:47.300Z,8.63
2019-04-18T01:16:16.631Z,8.87
2019-04-18T01:18:47.713Z,8.97
2019-04-18T01:21:17.071Z,7.23
2019-04-18T01:23:46.397Z,7.97
2019-04-18T01:26:15.764Z,9.20
2019-04-18T01:28:45.080Z,8.10
2019-04-18T01:31:14.431Z,9.77
2019-04-18T01:33:43.776Z,7.73
2019-04-18T01:36:13.134Z,7.57
2019-04-18T01:38:43.069Z,7.87
2019-04-18T01:41:14.002Z,7.33
2019-04-18T01:43:51.729Z,9.27
2019-04-18T01:46:49.179Z,8.13
2019-04-18T01:49:18.580Z,8.10
2019-04-18T01:51:50.841Z,6.10
2019-04-18T01:54:18.960Z,9.73
2019-04-18T01:56:48.273Z,6.77
2019-04-18T01:59:17.607Z,7.03
2019-04-18T02:01:46.969Z,7.53
2019-04-18T02:04:16.330Z,7.80
2019-04-18T02:06:45.671Z,10.37
2019-04-18T02:09:15.054Z,6.63
2019-04-18T02:11:44.532Z,7.73
2019-04-18T02:14:13.920Z,7.40
2019-04-18T02:16:43.777Z,5.83
2019-04-18T02:19:13.880Z,9.23
2019-04-18T02:21:43.362Z,7.63
2019-04-18T02:24:12.786Z,8.13
2019-04-18T02:26:42.121Z,6.67
2019-04-18T02:29:11.499Z,7.43
2019-04-18T02:31:40.809Z,6.77
2019-04-18T02:34:10.129Z,7.43
2019-04-18T02:36:39.484Z,8.77
2019-04-18T02:39:09.408Z,6.30
2019-04-18T02:41:40.071Z,6.40
2019-04-18T02:44:10.461Z,7.27
2019-04-18T02:46:42.015Z,6.83
2019-04-18T02:49:11.045Z,9.47
2019-04-18T02:51:40.406Z,6.27
2019-04-18T02:54:13.069Z,6.10
2019-04-18T02:56:44.266Z,10.40
2019-04-18T02:59:25.912Z,6.63
2019-04-18T03:02:09.382Z,6.90
2019-04-18T03:04:41.583Z,6.87
2019-04-18T03:07:10.881Z,6.77
2019-04-18T03:09:40.290Z,7.00
2019-04-18T03:12:09.625Z,7.50
2019-04-18T03:14:40.077Z,6.60
2019-04-18T03:17:10.132Z,5.63
2019-04-18T03:19:42.421Z,8.43
2019-04-18T03:22:10.561Z,7.00
2019-04-18T03:24:39.989Z,5.33
2019-04-18T03:27:11.944Z,6.07
2019-04-18T03:29:41.473Z,6.43
2019-04-18T03:32:11.405Z,5.27
2019-04-18T03:34:43.349Z,5.13
2019-04-18T03:37:15.963Z,5.70
2019-04-18T03:39:47.963Z,9.83
2019-04-18T03:42:16.635Z,7.60
2019-04-18T03:45:05.329Z,7.20
2019-04-18T03:47:42.603Z,6.37
2019-04-18T03:50:16.546Z,6.93
2019-04-18T03:52:43.452Z,7.23
2019-04-18T03:55:13.065Z,6.10
2019-04-18T03:57:42.464Z,5.57
2019-04-18T04:00:12.210Z,6.97
2019-04-18T04:02:41.648Z,6.70
2019-04-18T04:05:11.355Z,6.00
2019-04-18T04:07:40.666Z,6.80
2019-04-18T04:10:13.743Z,6.07
2019-04-18T04:12:41.316Z,7.03
2019-04-18T04:15:15.461Z,6.87
2019-04-18T04:18:19.283Z,5.80
2019-04-18T04:20:49.764Z,7.70
2019-04-18T04:23:19.132Z,4.47
2019-04-18T04:25:48.457Z,6.53
2019-04-18T04:28:17.852Z,4.80
2019-04-18T04:30:47.645Z,4.83
2019-04-18T04:33:17.126Z,5.30
2019-04-18T04:35:50.854Z,6.07
2019-04-18T04:38:19.438Z,6.50
2019-04-18T04:40:48.616Z,5.27
2019-04-18T04:43:20.697Z,8.23
2019-04-18T04:45:49.017Z,5.80
2019-04-18T04:48:30.764Z,7.53
2019-04-18T04:51:22.683Z,7.13
2019-04-18T04:54:05.957Z,7.10
2019-04-18T04:56:53.362Z,6.53
2019-04-18T04:59:23.713Z,6.40
2019-04-18T05:01:53.049Z,4.70
2019-04-18T05:04:22.484Z,5.63
2019-04-18T05:06:51.811Z,5.60
2019-04-18T05:09:21.114Z,5.33
2019-04-18T05:11:51.215Z,5.67
2019-04-18T05:14:21.573Z,5.27
2019-04-18T05:16:53.925Z,6.47
2019-04-18T05:19:28.534Z,6.93
2019-04-18T05:21:57.987Z,5.93
2019-04-18T05:24:27.378Z,6.33
2019-04-18T05:26:56.921Z,5.93
2019-04-18T05:29:26.323Z,6.97
2019-04-18T05:31:55.713Z,4.97
2019-04-18T05:34:25.110Z,5.97
2019-04-18T05:36:56.926Z,8.23
2019-04-18T05:39:30.257Z,7.93
2019-04-18T05:41:57.278Z,6.70
2019-04-18T05:44:28.314Z,5.23
2019-04-18T05:47:11.982Z,6.67
2019-04-18T05:49:54.413Z,9.03
2019-04-18T05:52:37.062Z,8.10
2019-04-18T05:55:11.007Z,6.30
2019-04-18T05:57:40.451Z,5.80
2019-04-18T06:00:32.920Z,6.97
2019-04-18T06:03:12.112Z,5.13
2019-04-18T06:06:16.707Z,7.67
2019-04-18T06:08:43.622Z,7.23
2019-04-18T06:11:24.434Z,4.90
2019-04-18T06:14:01.915Z,6.17
2019-04-18T06:16:59.045Z,4.63
2019-04-18T06:19:33.764Z,5.67
2019-04-18T06:22:14.123Z,6.30
2019-04-18T06:24:51.338Z,4.97
2019-04-18T06:27:42.470Z,7.97
2019-04-18T06:30:28.334Z,6.00
2019-04-18T06:33:02.032Z,7.87
2019-04-18T06:35:31.367Z,7.00
2019-04-18T06:38:00.707Z,5.87
2019-04-18T06:40:32.993Z,4.30
2019-04-18T06:43:01.264Z,5.57
2019-04-18T06:45:30.594Z,5.43
2019-04-18T06:48:03.562Z,5.50
2019-04-18T06:50:31.020Z,7.30
2019-04-18T06:53:00.358Z,6.83
2019-04-18T06:55:32.887Z,8.40
2019-04-18T06:58:00.747Z,5.13
2019-04-18T07:00:33.729Z,5.87
2019-04-18T07:03:03.609Z,5.80
2019-04-18T07:05:34.929Z,4.20
2019-04-18T07:08:17.368Z,8.77
2019-04-18T07:11:08.423Z,6.83
2019-04-18T07:13:52.514Z,5.40
2019-04-18T07:16:21.329Z,8.00
2019-04-18T07:18:50.727Z,4.90
2019-04-18T07:21:48.135Z,5.43
2019-04-18T07:24:17.480Z,6.73
2019-04-18T07:26:46.853Z,6.27
2019-04-18T07:29:16.498Z,6.70
2019-04-18T07:31:45.879Z,4.50
2019-04-18T07:34:15.410Z,6.83
2019-04-18T07:36:44.748Z,7.00
2019-04-18T07:39:14.090Z,4.47
2019-04-18T07:41:43.484Z,5.67
2019-04-18T07:44:21.100Z,8.00
2019-04-18T07:46:50.592Z,4.00
2019-04-18T07:49:20.408Z,4.83
2019-04-18T07:51:49.892Z,4.90
2019-04-18T07:54:19.796Z,7.33
2019-04-18T07:56:52.216Z,4.30
2019-04-18T07:59:20.798Z,6.30
2019-04-18T08:01:50.314Z,3.90
2019-04-18T08:04:19.630Z,4.10
2019-04-18T08:06:49.057Z,4.30
2019-04-18T08:09:18.810Z,6.57
2019-04-18T08:11:51.335Z,4.27
2019-04-18T08:14:20.674Z,4.37
2019-04-18T08:16:50.180Z,3.50
2019-04-18T08:19:19.564Z,6.00
2019-04-18T08:21:51.972Z,6.40
2019-04-18T08:24:21.314Z,6.27
2019-04-18T08:26:50.825Z,6.97
2019-04-18T08:29:25.388Z,6.57
2019-04-18T08:31:51.229Z,4.27
2019-04-18T08:34:20.856Z,6.27
2019-04-18T08:36:50.469Z,4.90
2019-04-18T08:39:30.137Z,4.20
2019-04-18T08:42:17.172Z,4.63
2019-04-18T08:44:57.428Z,7.03
2019-04-18T08:47:27.083Z,4.53
2019-04-18T08:50:06.396Z,5.83
2019-04-18T08:52:35.560Z,4.77
2019-04-18T08:55:23.517Z,4.33
2019-04-18T08:57:50.551Z,4.43
2019-04-18T09:00:22.983Z,4.40
2019-04-18T09:02:52.478Z,4.27
2019-04-18T09:05:28.658Z,5.83
2019-04-18T09:07:53.359Z,7.63
2019-04-18T09:10:23.973Z,4.00
2019-04-18T09:12:54.004Z,5.67
2019-04-18T09:15:23.810Z,4.57
2019-04-18T09:17:54.579Z,3.80
2019-04-18T09:20:30.243Z,4.27
2019-04-18T09:22:55.345Z,4.33
2019-04-18T09:25:25.067Z,4.90
2019-04-18T09:27:57.461Z,5.10
2019-04-18T09:30:25.626Z,4.70
2019-04-18T09:32:54.928Z,3.40
2019-04-18T09:35:24.309Z,3.83
2019-04-18T09:37:53.668Z,3.47
2019-04-18T09:40:27.069Z,4.37
2019-04-18T09:42:54.293Z,3.50
2019-04-18T09:45:30.295Z,5.20
2019-04-18T09:47:58.258Z,3.50
2019-04-18T09:50:25.776Z,5.07
2019-04-18T09:52:55.192Z,3.20
2019-04-18T09:55:24.548Z,4.53
2019-04-18T09:57:53.916Z,4.87
2019-04-18T10:00:25.172Z,3.33
2019-04-18T10:02:57.611Z,2.63
2019-04-18T10:05:27.827Z,4.10
2019-04-18T10:07:58.642Z,5.40
2019-04-18T10:10:27.989Z,2.83
2019-04-18T10:12:57.347Z,3.13
2019-04-18T10:15:28.385Z,3.92
2019-04-18T10:17:59.184Z,8.03
2019-04-18T10:20:29.609Z,3.50
2019-04-18T10:22:59.427Z,3.80
2019-04-18T10:25:50.442Z,4.77
2019-04-18T10:28:19.361Z,4.43
2019-04-18T10:30:52.835Z,3.40
2019-04-18T10:33:22.286Z,3.70
2019-04-18T10:35:51.612Z,4.03
2019-04-18T10:38:20.963Z,6.03
2019-04-18T10:40:53.538Z,4.43
2019-04-18T10:43:21.483Z,6.97
2019-04-18T10:45:50.896Z,3.93
2019-04-18T10:48:20.303Z,3.33
2019-04-18T10:50:49.722Z,5.37
2019-04-18T10:53:19.044Z,5.67
2019-04-18T10:55:48.464Z,6.87
2019-04-18T10:58:17.805Z,3.50
2019-04-18T11:00:47.149Z,4.00
2019-04-18T11:03:16.633Z,4.20
2019-04-18T11:05:45.988Z,6.87
2019-04-18T11:08:15.361Z,5.37
2019-04-18T11:10:44.768Z,4.63
2019-04-18T11:13:14.683Z,4.43
2019-04-18T11:15:44.143Z,7.00
2019-04-18T11:18:13.475Z,4.43
2019-04-18T11:20:42.897Z,2.73
2019-04-18T11:23:12.259Z,3.40
2019-04-18T11:25:41.654Z,6.77
2019-04-18T11:28:11.016Z,4.83
2019-04-18T11:30:40.559Z,3.50
2019-04-18T11:33:09.918Z,2.73
2019-04-18T11:35:39.570Z,2.50
2019-04-18T11:38:09.006Z,4.30
2019-04-18T11:40:41.724Z,3.80
2019-04-18T11:43:09.581Z,6.33
2019-04-18T11:45:38.938Z,4.27
2019-04-18T11:48:08.616Z,3.27
2019-04-18T11:50:38.018Z,3.50
2019-04-18T11:53:07.354Z,3.97
2019-04-18T11:55:36.749Z,3.43
2019-04-18T11:58:06.579Z,5.13
2019-04-18T12:00:53.330Z,2.57
2019-04-18T12:03:34.327Z,3.67
2019-04-18T12:06:03.958Z,5.10
2019-04-18T12:08:33.297Z,2.53
2019-04-18T12:11:02.653Z,2.60
2019-04-18T12:13:31.936Z,2.73
2019-04-18T12:16:03.885Z,3.53
2019-04-18T12:18:32.891Z,3.17
2019-04-18T12:21:02.281Z,4.93
2019-04-18T12:23:31.657Z,2.43
2019-04-18T12:26:01.190Z,2.57
2019-04-18T12:28:31.016Z,3.97
2019-04-18T12:31:00.417Z,4.87
2019-04-18T12:33:29.880Z,2.67
2019-04-18T12:35:59.918Z,3.83
2019-04-18T12:38:29.673Z,2.47
2019-04-18T12:41:08.399Z,4.40
2019-04-18T12:43:30.493Z,3.43
2019-04-18T12:46:00.394Z,4.87
2019-04-18T12:48:29.931Z,2.77
2019-04-18T12:50:59.902Z,2.90
2019-04-18T12:53:29.925Z,3.33
2019-04-18T12:55:59.578Z,3.20
2019-04-18T12:58:29.323Z,4.77
2019-04-18T13:00:59.026Z,3.73
2019-04-18T13:03:29.506Z,3.17
2019-04-18T13:05:59.194Z,3.70
2019-04-18T13:08:59.969Z,2.20
2019-04-18T13:11:48.343Z,2.43
2019-04-18T13:14:35.094Z,2.50
2019-04-18T13:17:10.992Z,3.37
2019-04-18T13:19:40.495Z,4.93
2019-04-18T13:22:09.973Z,5.00
2019-04-18T13:24:39.627Z,5.43
2019-04-18T13:27:09.019Z,3.83
2019-04-18T13:29:38.540Z,2.77
2019-04-18T13:32:09.044Z,2.70
2019-04-18T13:34:39.242Z,4.17
2019-04-18T13:37:08.820Z,5.50
2019-04-18T13:39:38.412Z,4.17
2019-04-18T13:42:08.370Z,3.20
2019-04-18T13:44:37.784Z,3.57
2019-04-18T13:47:07.224Z,5.33
2019-04-18T13:49:36.562Z,3.87
2019-04-18T13:52:06.331Z,4.57
2019-04-18T13:54:35.741Z,3.27
2019-04-18T13:57:05.107Z,4.30
2019-04-18T13:59:34.499Z,3.10
2019-04-18T14:02:18.060Z,3.07
2019-04-18T14:04:34.910Z,3.03
2019-04-18T14:07:04.337Z,2.90
2019-04-18T14:09:33.842Z,4.10
2019-04-18T14:12:03.246Z,3.33
2019-04-18T14:14:32.618Z,3.17
2019-04-18T14:17:03.575Z,2.97
2019-04-18T14:19:33.095Z,4.07
2019-04-18T14:22:02.919Z,3.17
2019-04-18T14:24:32.335Z,3.13
2019-04-18T14:27:01.707Z,4.83
2019-04-18T14:29:31.157Z,2.83
2019-04-18T14:32:00.617Z,3.60
2019-04-18T14:34:29.965Z,2.97
2019-04-18T14:36:59.406Z,3.33
2019-04-18T14:39:28.898Z,3.90
2019-04-18T14:42:01.712Z,5.37
2019-04-18T14:44:29.457Z,2.67
2019-04-18T14:46:59.155Z,3.70
2019-04-18T14:49:28.563Z,3.27
2019-04-18T14:51:57.884Z,4.63
2019-04-18T14:54:30.344Z,3.67
2019-04-18T14:56:59.798Z,4.13
2019-04-18T14:59:29.306Z,2.53
2019-04-18T15:01:58.647Z,2.90
2019-04-18T15:04:28.177Z,4.37
2019-04-18T15:06:57.605Z,3.53
2019-04-18T15:09:35.707Z,4.40
2019-04-18T15:12:05.349Z,3.70
2019-04-18T15:14:35.076Z,3.03
2019-04-18T15:17:04.545Z,5.97
2019-04-18T15:19:33.864Z,3.17
2019-04-18T15:22:03.779Z,2.60
2019-04-18T15:24:33.193Z,3.30
2019-04-18T15:27:02.617Z,4.63
2019-04-18T15:29:31.952Z,2.20
2019-04-18T15:32:02.197Z,2.57
2019-04-18T15:34:32.108Z,4.33
2019-04-18T15:37:01.490Z,3.80
2019-04-18T15:39:30.964Z,4.47
2019-04-18T15:42:00.668Z,3.47
2019-04-18T15:44:30.049Z,3.47
2019-04-18T15:47:04.745Z,4.07
2019-04-18T15:49:34.588Z,7.73
2019-04-18T15:52:04.637Z,5.20
2019-04-18T15:54:34.028Z,3.80
2019-04-18T15:57:03.511Z,3.77
2019-04-18T15:59:32.905Z,4.93
2019-04-18T16:02:02.276Z,2.50
2019-04-18T16:04:32.139Z,4.47
2019-04-18T16:07:03.130Z,3.57
2019-04-18T16:09:32.815Z,2.70
2019-04-18T16:12:02.258Z,3.20
2019-04-18T16:15:00.472Z,2.27
2019-04-18T16:17:29.929Z,4.17
2019-04-18T16:19:59.280Z,2.67
2019-04-18T16:22:28.660Z,4.50
2019-04-18T16:24:58.002Z,5.53
2019-04-18T16:27:27.368Z,3.70
2019-04-18T16:29:56.865Z,6.67
2019-04-18T16:32:26.323Z,2.93
2019-04-18T16:34:55.757Z,4.20
2019-04-18T16:37:25.111Z,2.70
2019-04-18T16:39:54.464Z,2.77
2019-04-18T16:42:30.160Z,7.73
2019-04-18T16:44:54.621Z,3.10
2019-04-18T16:47:24.288Z,6.03
2019-04-18T16:49:53.633Z,2.97
2019-04-18T16:52:23.064Z,4.57
2019-04-18T16:54:52.479Z,7.37
2019-04-18T16:57:21.873Z,6.47
2019-04-18T16:59:51.273Z,6.43
2019-04-18T17:02:20.725Z,3.27
2019-04-18T17:04:50.120Z,3.37
2019-04-18T17:07:19.807Z,2.87
2019-04-18T17:09:49.259Z,4.83
2019-04-18T17:12:18.742Z,4.80
2019-04-18T17:14:48.124Z,4.57
2019-04-18T17:17:17.508Z,2.97
2019-04-18T17:19:47.223Z,3.63
2019-04-18T17:22:16.632Z,3.97
2019-04-18T17:24:46.033Z,3.17
2019-04-18T17:27:15.488Z,3.47
2019-04-18T17:29:45.056Z,6.23
2019-04-18T17:32:14.463Z,3.97
2019-04-18T17:34:50.773Z,5.97
2019-04-18T17:37:27.890Z,4.13
2019-04-18T17:40:03.151Z,6.23
2019-04-18T17:42:18.570Z,5.47
2019-04-18T17:44:54.436Z,4.97
2019-04-18T17:47:21.301Z,5.00
2019-04-18T17:49:57.624Z,8.00
2019-04-18T17:52:36.213Z,6.07
2019-04-18T17:55:13.144Z,4.20
2019-04-18T17:57:25.214Z,4.40
2019-04-18T18:00:00.034Z,7.07
2019-04-18T18:02:27.498Z,4.17
2019-04-18T18:05:06.682Z,3.90
2019-04-18T18:07:31.356Z,4.23
2019-04-18T18:09:59.303Z,4.13
2019-04-18T18:12:30.340Z,3.93
2019-04-18T18:15:01.943Z,6.67
2019-04-18T18:17:31.231Z,6.60
2019-04-18T18:20:06.980Z,4.77
2019-04-18T18:22:35.679Z,4.47
2019-04-18T18:25:02.877Z,4.10
2019-04-18T18:27:39.026Z,5.53
2019-04-18T18:30:03.467Z,7.40
2019-04-18T18:32:38.445Z,5.13
2019-04-18T18:35:21.640Z,6.63
2019-04-18T18:37:50.108Z,7.30
2019-04-18T18:40:16.110Z,6.10
2019-04-18T18:42:44.154Z,12.13
2019-04-18T18:45:21.231Z,6.23
2019-04-18T18:47:50.578Z,4.83
2019-04-18T18:50:16.065Z,5.93
2019-04-18T18:52:45.678Z,5.57
2019-04-18T18:55:15.219Z,5.27
2019-04-18T18:57:49.004Z,5.77
2019-04-18T19:00:17.036Z,4.53
2019-04-18T19:02:51.533Z,7.53
2019-04-18T19:05:34.156Z,7.40
2019-04-18T19:08:01.403Z,11.23
2019-04-18T19:10:55.636Z,7.33
2019-04-18T19:13:14.550Z,6.67
2019-04-18T19:15:43.289Z,4.80
2019-04-18T19:17:54.298Z,6.13
2019-04-18T19:20:23.684Z,8.53
2019-04-18T19:22:53.070Z,6.57
2019-04-18T19:25:29.766Z,7.10
2019-04-18T19:28:04.364Z,5.63
2019-04-18T19:30:35.810Z,7.40
2019-04-18T19:33:04.605Z,7.50
2019-04-18T19:35:47.939Z,7.80
2019-04-18T19:38:26.038Z,6.73
2019-04-18T19:41:08.190Z,7.50
2019-04-18T19:43:08.920Z,7.07
2019-04-18T19:45:39.467Z,9.60
2019-04-18T19:48:07.071Z,11.67
2019-04-18T19:50:36.529Z,9.13
2019-04-18T19:53:10.661Z,8.20
2019-04-18T19:55:37.177Z,6.97
2019-04-18T19:58:06.883Z,7.37
2019-04-18T20:00:37.206Z,6.20
2019-04-18T20:03:07.175Z,8.27
2019-04-18T20:06:04.106Z,7.57
2019-04-18T20:08:18.170Z,7.40
2019-04-18T20:10:59.789Z,5.73
2019-04-18T20:13:17.383Z,9.40
2019-04-18T20:15:40.894Z,8.03
2019-04-18T20:18:11.302Z,8.13
2019-04-18T20:20:41.246Z,6.97
2019-04-18T20:23:10.654Z,10.43
2019-04-18T20:25:40.126Z,8.63
2019-04-18T20:28:12.862Z,6.13
2019-04-18T20:30:40.597Z,7.23
2019-04-18T20:33:17.947Z,10.20
2019-04-18T20:35:42.062Z,8.87
2019-04-18T20:38:18.458Z,6.77
2019-04-18T20:41:05.163Z,7.47
2019-04-18T20:43:21.916Z,8.17
2019-04-18T20:46:01.990Z,6.87
2019-04-18T20:48:27.876Z,8.20
2019-04-18T20:50:57.020Z,6.40
2019-04-18T20:53:42.535Z,9.20
2019-04-18T20:55:57.023Z,6.57
2019-04-18T20:58:26.977Z,10.90
2019-04-18T21:00:53.038Z,8.53
2019-04-18T21:03:29.428Z,15.77
2019-04-18T21:05:55.123Z,7.33
2019-04-18T21:08:34.712Z,6.57
2019-04-18T21:10:56.049Z,7.67
2019-04-18T21:13:25.515Z,8.37
2019-04-18T21:16:00.332Z,8.73
2019-04-18T21:18:26.377Z,6.70
2019-04-18T21:20:58.499Z,7.63
2019-04-18T21:23:26.820Z,9.17
2019-04-18T21:25:56.175Z,7.50
2019-04-18T21:28:28.551Z,6.57
2019-04-18T21:31:04.029Z,6.60
2019-04-18T21:33:35.446Z,7.90
2019-04-18T21:36:10.360Z,7.20
2019-04-18T21:38:45.190Z,7.03
2019-04-18T21:41:07.628Z,8.23
2019-04-18T21:43:37.145Z,10.57
2019-04-18T21:46:07.598Z,8.77
2019-04-18T21:48:37.074Z,6.70
2019-04-18T21:51:08.338Z,7.83
2019-04-18T21:53:38.682Z,9.70
2019-04-18T21:56:11.687Z,8.57
2019-04-18T21:58:53.737Z,6.67
2019-04-18T22:01:14.455Z,8.33
2019-04-18T22:03:48.659Z,7.10
2019-04-18T22:06:15.166Z,7.33
2019-04-18T22:08:44.491Z,8.43
2019-04-18T22:11:18.458Z,7.70
2019-04-18T22:13:46.781Z,6.60
2019-04-18T22:16:17.433Z,8.30
2019-04-18T22:18:47.751Z,6.73
2019-04-18T22:21:19.995Z,7.17
2019-04-18T22:23:48.362Z,8.40
2019-04-18T22:26:23.972Z,7.27
2019-04-18T22:28:50.486Z,7.57
2019-04-18T22:31:22.266Z,7.50
2019-04-18T22:33:52.042Z,8.50
2019-04-18T22:36:25.027Z,6.27
2019-04-18T22:38:52.714Z,9.97
2019-04-18T22:41:25.128Z,7.27
2019-04-18T22:43:53.824Z,6.77
2019-04-18T22:46:26.322Z,8.50
2019-04-18T22:48:55.062Z,7.13
2019-04-18T22:51:25.623Z,6.87
2019-04-18T22:53:57.149Z,11.27
2019-04-18T22:56:26.127Z,6.63
2019-04-18T22:58:59.664Z,8.80
2019-04-18T23:01:26.594Z,9.13
2019-04-18T23:03:57.303Z,9.13
2019-04-18T23:06:32.581Z,8.27
2019-04-18T23:09:03.255Z,8.23
2019-04-18T23:11:29.258Z,8.53
2019-04-18T23:14:06.444Z,9.17
2019-04-18T23:16:31.041Z,7.70
2019-04-18T23:19:04.284Z,7.90
2019-04-18T23:21:31.647Z,7.53
2019-04-18T23:24:03.308Z,8.37
2019-04-18T23:26:32.501Z,8.90
2019-04-18T23:29:06.148Z,9.13
2019-04-18T23:31:33.617Z,6.90
2019-04-18T23:34:05.326Z,7.73
2019-04-18T23:36:40.923Z,8.33
2019-04-18T23:39:15.412Z,7.87
2019-04-18T23:41:38.345Z,9.73
2019-04-18T23:44:13.261Z,6.30
2019-04-18T23:46:38.833Z,7.47
2019-04-18T23:49:17.363Z,8.30
2019-04-18T23:51:42.636Z,10.20
2019-04-18T23:54:12.413Z,9.40
2019-04-18T23:56:46.090Z,8.13
2019-04-18T23:59:12.793Z,8.13
